createdAt,value
2023-05-14T00:00:00.038Z,99.90
2023-05-14T00:02:27.215Z,99.90
2023-05-14T00:04:54.341Z,99.90
2023-05-14T00:07:21.287Z,99.90
2023-05-14T00:09:48.237Z,99.90
2023-05-14T00:12:15.409Z,99.90
2023-05-14T00:14:42.383Z,99.90
2023-05-14T00:17:09.957Z,99.90
2023-05-14T00:19:36.913Z,99.90
2023-05-14T00:22:04.098Z,99.90
2023-05-14T00:24:31.033Z,99.90
2023-05-14T00:26:58.045Z,99.90
2023-05-14T00:29:25.006Z,99.90
2023-05-14T00:31:52.075Z,99.90
2023-05-14T00:34:19.155Z,99.90
2023-05-14T00:36:46.133Z,99.90
2023-05-14T00:39:14.188Z,99.90
2023-05-14T00:41:41.292Z,99.90
2023-05-14T00:44:08.327Z,99.90
2023-05-14T00:46:35.630Z,99.90
2023-05-14T00:49:03.389Z,99.90
2023-05-14T00:51:30.677Z,99.90
2023-05-14T00:53:57.929Z,99.90
2023-05-14T00:56:25.657Z,99.90
2023-05-14T00:58:52.640Z,99.90
2023-05-14T01:01:19.688Z,99.90
2023-05-14T01:03:47.014Z,99.90
2023-05-14T01:06:21.571Z,99.90
2023-05-14T01:09:08.725Z,99.90
2023-05-14T01:12:06.324Z,99.90
2023-05-14T01:15:02.423Z,99.90
2023-05-14T01:17:33.514Z,99.90
2023-05-14T01:20:00.899Z,99.90
2023-05-14T01:22:27.922Z,99.90
2023-05-14T01:24:54.987Z,99.90
2023-05-14T01:28:05.537Z,99.90
2023-05-14T01:30:40.260Z,99.90
2023-05-14T01:33:13.980Z,99.90
2023-05-14T01:35:43.333Z,99.90
2023-05-14T01:38:14.908Z,99.90
2023-05-14T01:40:43.169Z,99.90
2023-05-14T01:43:11.608Z,99.90
2023-05-14T01:45:38.721Z,99.90
2023-05-14T01:48:06.441Z,99.90
2023-05-14T01:50:33.617Z,99.90
2023-05-14T01:53:00.764Z,99.90
2023-05-14T01:55:28.066Z,99.90
2023-05-14T01:57:55.184Z,99.90
2023-05-14T02:00:26.012Z,99.90
2023-05-14T02:02:53.475Z,99.90
2023-05-14T02:05:21.077Z,99.90
2023-05-14T02:07:48.083Z,99.90
2023-05-14T02:10:16.213Z,99.90
2023-05-14T02:12:43.922Z,99.90
2023-05-14T02:15:12.095Z,99.90
2023-05-14T02:17:39.356Z,99.90
2023-05-14T02:20:07.744Z,99.90
2023-05-14T02:22:42.218Z,99.90
2023-05-14T02:25:09.935Z,99.90
2023-05-14T02:27:37.017Z,99.90
2023-05-14T02:30:06.159Z,99.90
2023-05-14T02:32:33.525Z,99.90
2023-05-14T02:35:00.692Z,99.90
2023-05-14T02:37:27.711Z,99.90
2023-05-14T02:39:54.691Z,99.90
2023-05-14T02:42:23.111Z,99.90
2023-05-14T02:44:52.231Z,99.90
2023-05-14T02:47:19.562Z,99.90
2023-05-14T02:49:46.608Z,99.90
2023-05-14T02:52:13.788Z,99.90
2023-05-14T02:54:40.846Z,99.90
2023-05-14T02:57:07.844Z,99.90
2023-05-14T02:59:35.266Z,99.90
2023-05-14T03:02:02.836Z,99.90
2023-05-14T03:04:30.456Z,99.90
2023-05-14T03:06:57.502Z,99.90
2023-05-14T03:09:24.438Z,99.90
2023-05-14T03:11:51.444Z,99.90
2023-05-14T03:14:18.433Z,99.90
2023-05-14T03:16:46.030Z,99.90
2023-05-14T03:19:13.254Z,99.90
2023-05-14T03:21:40.489Z,99.90
2023-05-14T03:24:07.483Z,99.90
2023-05-14T03:26:34.517Z,99.90
2023-05-14T03:29:02.358Z,99.90
2023-05-14T03:31:29.583Z,99.90
2023-05-14T03:33:56.896Z,99.90
2023-05-14T03:36:23.870Z,99.90
2023-05-14T03:38:50.827Z,99.90
2023-05-14T03:41:19.127Z,99.90
2023-05-14T03:43:46.112Z,99.90
2023-05-14T03:46:13.323Z,99.90
2023-05-14T03:48:40.961Z,99.90
2023-05-14T03:51:08.062Z,99.90
2023-05-14T03:53:36.551Z,99.90
2023-05-14T03:56:03.721Z,99.90
2023-05-14T03:58:30.946Z,99.90
2023-05-14T04:00:58.069Z,99.90
2023-05-14T04:03:25.770Z,99.90
2023-05-14T04:05:52.824Z,99.90
2023-05-14T04:08:20.050Z,99.90
2023-05-14T04:10:47.096Z,99.90
2023-05-14T04:13:14.141Z,99.90
2023-05-14T04:15:41.645Z,99.90
2023-05-14T04:18:08.698Z,99.90
2023-05-14T04:20:35.802Z,99.90
2023-05-14T04:23:02.849Z,99.90
2023-05-14T04:25:30.458Z,99.90
2023-05-14T04:27:58.546Z,99.90
2023-05-14T04:30:26.372Z,99.90
2023-05-14T04:32:53.451Z,99.90
2023-05-14T04:35:22.633Z,99.90
2023-05-14T04:37:51.115Z,99.90
2023-05-14T04:40:18.082Z,99.90
2023-05-14T04:42:45.171Z,99.90
2023-05-14T04:45:13.491Z,99.90
2023-05-14T04:47:41.639Z,99.90
2023-05-14T04:50:09.732Z,99.90
2023-05-14T04:52:36.944Z,99.90
2023-05-14T04:55:04.251Z,99.90
2023-05-14T04:57:31.247Z,99.90
2023-05-14T04:59:58.214Z,99.90
2023-05-14T05:02:25.524Z,99.90
2023-05-14T05:04:52.524Z,99.90
2023-05-14T05:07:19.916Z,99.90
2023-05-14T05:09:46.903Z,99.90
2023-05-14T05:12:13.875Z,99.90
2023-05-14T05:14:40.852Z,99.90
2023-05-14T05:17:08.235Z,99.90
2023-05-14T05:19:43.040Z,99.90
2023-05-14T05:22:11.152Z,99.90
2023-05-14T05:24:38.120Z,99.90
2023-05-14T05:27:05.995Z,99.90
2023-05-14T05:29:33.377Z,99.90
2023-05-14T05:32:00.536Z,99.90
2023-05-14T05:34:27.736Z,99.90
2023-05-14T05:36:54.659Z,99.90
2023-05-14T05:39:21.651Z,99.90
2023-05-14T05:41:48.627Z,99.90
2023-05-14T05:44:15.665Z,99.90
2023-05-14T05:46:42.845Z,99.90
2023-05-14T05:49:09.799Z,99.90
2023-05-14T05:51:36.742Z,99.90
2023-05-14T05:54:03.916Z,99.90
2023-05-14T05:56:30.858Z,99.90
2023-05-14T05:58:57.775Z,99.90
2023-05-14T06:01:24.776Z,99.90
2023-05-14T06:03:51.713Z,99.90
2023-05-14T06:06:18.639Z,99.90
2023-05-14T06:08:45.612Z,99.90
2023-05-14T06:11:12.693Z,99.90
2023-05-14T06:13:39.642Z,99.90
2023-05-14T06:16:06.775Z,99.90
2023-05-14T06:18:33.743Z,99.90
2023-05-14T06:21:00.677Z,99.90
2023-05-14T06:23:27.632Z,99.90
2023-05-14T06:25:54.632Z,99.90
2023-05-14T06:28:21.562Z,99.90
2023-05-14T06:30:50.564Z,99.90
2023-05-14T06:33:19.391Z,99.90
2023-05-14T06:35:47.533Z,99.90
2023-05-14T06:38:14.531Z,99.90
2023-05-14T06:40:41.537Z,99.90
2023-05-14T06:43:08.506Z,99.90
2023-05-14T06:45:35.829Z,99.90
2023-05-14T06:48:02.978Z,99.90
2023-05-14T06:50:29.980Z,99.90
2023-05-14T06:52:56.921Z,99.90
2023-05-14T06:55:23.908Z,99.90
2023-05-14T06:57:50.913Z,99.90
2023-05-14T07:00:18.510Z,99.90
2023-05-14T07:02:45.539Z,99.90
2023-05-14T07:05:12.920Z,99.90
2023-05-14T07:07:40.284Z,99.90
2023-05-14T07:10:08.161Z,99.90
2023-05-14T07:12:35.361Z,99.90
2023-05-14T07:15:02.349Z,99.90
2023-05-14T07:17:29.626Z,99.90
2023-05-14T07:19:56.653Z,99.90
2023-05-14T07:22:23.653Z,99.90
2023-05-14T07:24:50.595Z,99.90
2023-05-14T07:27:17.611Z,99.90
2023-05-14T07:29:44.819Z,99.90
2023-05-14T07:32:13.904Z,99.90
2023-05-14T07:34:42.502Z,99.90
2023-05-14T07:37:09.631Z,99.90
2023-05-14T07:39:36.586Z,99.90
2023-05-14T07:42:04.449Z,99.90
2023-05-14T07:44:31.408Z,99.90
2023-05-14T07:46:58.450Z,99.90
2023-05-14T07:49:25.427Z,99.90
2023-05-14T07:51:52.338Z,99.90
2023-05-14T07:54:19.303Z,99.90
2023-05-14T07:56:46.249Z,99.90
2023-05-14T07:59:13.223Z,99.90
2023-05-14T08:01:40.586Z,99.90
2023-05-14T08:04:08.097Z,99.90
2023-05-14T08:06:35.718Z,99.90
2023-05-14T08:09:05.261Z,99.90
2023-05-14T08:11:32.214Z,99.90
2023-05-14T08:13:59.331Z,98.70
2023-05-14T08:16:26.687Z,98.30
2023-05-14T08:18:53.736Z,97.50
2023-05-14T08:21:20.851Z,97.00
2023-05-14T08:23:47.815Z,96.30
2023-05-14T08:26:14.839Z,95.60
2023-05-14T08:28:41.839Z,94.40
2023-05-14T08:31:08.833Z,93.80
2023-05-14T08:33:35.811Z,93.40
2023-05-14T08:36:02.731Z,93.00
2023-05-14T08:38:29.861Z,92.60
2023-05-14T08:40:58.989Z,92.70
2023-05-14T08:43:45.772Z,91.90
2023-05-14T08:46:15.464Z,91.40
2023-05-14T08:48:43.498Z,90.90
2023-05-14T08:51:10.553Z,90.20
2023-05-14T08:53:38.323Z,89.90
2023-05-14T08:56:07.852Z,89.30
2023-05-14T08:58:34.892Z,89.10
2023-05-14T09:01:01.889Z,88.50
2023-05-14T09:03:30.796Z,88.10
2023-05-14T09:06:00.083Z,86.50
2023-05-14T09:08:27.354Z,86.80
2023-05-14T09:10:54.292Z,85.20
2023-05-14T09:13:21.301Z,85.60
2023-05-14T09:15:49.788Z,84.40
2023-05-14T09:18:17.836Z,84.10
2023-05-14T09:20:46.626Z,84.30
2023-05-14T09:23:13.560Z,84.20
2023-05-14T09:25:40.865Z,83.30
2023-05-14T09:28:09.576Z,82.50
2023-05-14T09:30:37.108Z,81.80
2023-05-14T09:33:04.272Z,81.80
2023-05-14T09:35:32.343Z,81.70
2023-05-14T09:37:59.309Z,80.50
2023-05-14T09:40:26.608Z,80.10
2023-05-14T09:42:54.228Z,80.00
2023-05-14T09:45:21.337Z,80.40
2023-05-14T09:47:48.544Z,80.10
2023-05-14T09:50:15.694Z,79.90
2023-05-14T09:52:42.715Z,79.50
2023-05-14T09:55:09.981Z,79.70
2023-05-14T09:57:37.148Z,78.40
2023-05-14T10:00:04.845Z,79.20
2023-05-14T10:02:40.820Z,79.00
2023-05-14T10:05:08.655Z,78.30
2023-05-14T10:07:49.712Z,78.80
2023-05-14T10:10:20.585Z,77.80
2023-05-14T10:12:58.650Z,78.40
2023-05-14T10:15:38.071Z,78.70
2023-05-14T10:18:15.832Z,78.10
2023-05-14T10:20:44.596Z,77.80
2023-05-14T10:23:11.992Z,78.60
2023-05-14T10:25:41.639Z,78.10
2023-05-14T10:28:08.945Z,78.00
2023-05-14T10:30:35.920Z,78.40
2023-05-14T10:33:14.250Z,78.50
2023-05-14T10:36:07.525Z,77.20
2023-05-14T10:38:37.232Z,79.20
2023-05-14T10:41:17.716Z,78.70
2023-05-14T10:43:44.908Z,77.80
2023-05-14T10:46:14.253Z,78.70
2023-05-14T10:48:45.738Z,77.30
2023-05-14T10:51:13.041Z,78.70
2023-05-14T10:53:44.088Z,79.00
2023-05-14T10:56:13.998Z,75.90
2023-05-14T10:58:44.690Z,77.20
2023-05-14T11:01:13.857Z,77.90
2023-05-14T11:03:46.856Z,77.10
2023-05-14T11:06:16.176Z,78.80
2023-05-14T11:08:44.681Z,78.40
2023-05-14T11:11:12.821Z,80.00
2023-05-14T11:13:41.191Z,77.80
2023-05-14T11:16:21.920Z,77.30
2023-05-14T11:19:03.550Z,76.90
2023-05-14T11:21:32.499Z,78.10
2023-05-14T11:24:03.696Z,76.80
2023-05-14T11:26:31.996Z,79.10
2023-05-14T11:28:59.160Z,79.30
2023-05-14T11:31:26.209Z,77.60
2023-05-14T11:33:53.628Z,75.10
2023-05-14T11:36:20.797Z,76.80
2023-05-14T11:38:50.540Z,76.80
2023-05-14T11:41:17.809Z,76.50
2023-05-14T11:43:44.822Z,77.00
2023-05-14T11:46:22.313Z,78.60
2023-05-14T11:48:49.518Z,77.90
2023-05-14T11:51:16.725Z,77.10
2023-05-14T11:53:45.470Z,76.30
2023-05-14T11:56:12.570Z,76.60
2023-05-14T11:58:39.783Z,78.50
2023-05-14T12:01:06.855Z,76.80
2023-05-14T12:03:35.134Z,77.30
2023-05-14T12:06:07.339Z,77.10
2023-05-14T12:08:34.274Z,78.40
2023-05-14T12:11:01.941Z,78.40
2023-05-14T12:13:31.217Z,79.40
2023-05-14T12:16:01.957Z,78.70
2023-05-14T12:18:31.851Z,78.40
2023-05-14T12:21:08.415Z,76.30
2023-05-14T12:23:35.570Z,76.80
2023-05-14T12:26:09.431Z,76.20
2023-05-14T12:28:43.241Z,76.20
2023-05-14T12:31:10.670Z,75.50
2023-05-14T12:33:37.626Z,76.80
2023-05-14T12:36:20.422Z,77.70
2023-05-14T12:38:49.134Z,78.90
2023-05-14T12:41:17.668Z,79.90
2023-05-14T12:43:45.144Z,80.10
2023-05-14T12:46:12.231Z,78.80
2023-05-14T12:48:39.172Z,79.70
2023-05-14T12:51:06.577Z,80.30
2023-05-14T12:53:35.221Z,81.80
2023-05-14T12:56:02.421Z,82.40
2023-05-14T12:58:29.583Z,82.10
2023-05-14T13:00:56.641Z,76.80
2023-05-14T13:03:23.902Z,75.10
2023-05-14T13:05:54.937Z,76.00
2023-05-14T13:08:24.923Z,75.60
2023-05-14T13:10:56.294Z,76.70
2023-05-14T13:13:23.497Z,76.90
2023-05-14T13:15:50.786Z,77.50
2023-05-14T13:18:18.132Z,76.70
2023-05-14T13:20:47.703Z,76.40
2023-05-14T13:23:15.565Z,80.40
2023-05-14T13:25:42.605Z,78.10
2023-05-14T13:28:09.704Z,77.80
2023-05-14T13:30:36.742Z,78.40
2023-05-14T13:33:04.273Z,78.80
2023-05-14T13:35:31.415Z,79.30
2023-05-14T13:37:58.402Z,78.50
2023-05-14T13:40:25.621Z,79.70
2023-05-14T13:42:52.594Z,79.30
2023-05-14T13:45:19.979Z,79.30
2023-05-14T13:47:48.243Z,80.30
2023-05-14T13:50:16.542Z,79.30
2023-05-14T13:52:43.809Z,79.00
2023-05-14T13:55:10.783Z,81.80
2023-05-14T13:57:39.688Z,82.50
2023-05-14T14:00:07.929Z,84.80
2023-05-14T14:02:35.229Z,85.30
2023-05-14T14:05:02.523Z,85.40
2023-05-14T14:07:29.526Z,84.90
2023-05-14T14:09:56.576Z,83.40
2023-05-14T14:12:23.773Z,82.50
2023-05-14T14:14:51.001Z,82.00
2023-05-14T14:17:17.986Z,81.60
2023-05-14T14:19:44.970Z,82.00
2023-05-14T14:22:13.937Z,83.50
2023-05-14T14:24:41.027Z,82.70
2023-05-14T14:27:08.470Z,82.00
2023-05-14T14:29:36.659Z,81.40
2023-05-14T14:32:04.703Z,82.60
2023-05-14T14:34:31.744Z,84.00
2023-05-14T14:36:58.765Z,85.40
2023-05-14T14:39:26.481Z,84.50
2023-05-14T14:41:53.507Z,84.60
2023-05-14T14:44:20.542Z,85.40
2023-05-14T14:46:47.647Z,85.40
2023-05-14T14:49:14.632Z,84.60
2023-05-14T14:51:41.625Z,85.00
2023-05-14T14:54:08.650Z,85.20
2023-05-14T14:56:35.616Z,85.10
2023-05-14T14:59:03.373Z,84.50
2023-05-14T15:01:30.417Z,84.80
2023-05-14T15:03:57.421Z,84.60
2023-05-14T15:06:24.435Z,84.50
2023-05-14T15:08:51.442Z,85.30
2023-05-14T15:11:18.620Z,84.50
2023-05-14T15:13:45.645Z,84.70
2023-05-14T15:16:13.561Z,83.90
2023-05-14T15:18:40.608Z,83.20
2023-05-14T15:21:07.651Z,84.30
2023-05-14T15:23:34.628Z,83.00
2023-05-14T15:26:01.531Z,82.90
2023-05-14T15:28:28.522Z,83.20
2023-05-14T15:30:55.559Z,84.30
2023-05-14T15:33:22.545Z,84.50
2023-05-14T15:35:49.523Z,84.70
2023-05-14T15:38:16.682Z,86.00
2023-05-14T15:40:43.729Z,85.80
2023-05-14T15:43:10.918Z,86.80
2023-05-14T15:45:37.935Z,85.90
2023-05-14T15:48:05.395Z,86.90
2023-05-14T15:50:32.490Z,87.80
2023-05-14T15:53:00.528Z,87.60
2023-05-14T15:55:27.752Z,87.70
2023-05-14T15:57:55.123Z,88.00
2023-05-14T16:00:22.796Z,88.40
2023-05-14T16:02:51.333Z,87.80
2023-05-14T16:05:19.014Z,87.60
2023-05-14T16:07:46.429Z,88.60
2023-05-14T16:10:13.495Z,87.80
2023-05-14T16:12:40.465Z,87.30
2023-05-14T16:15:08.587Z,87.80
2023-05-14T16:17:35.752Z,88.80
2023-05-14T16:20:04.767Z,87.60
2023-05-14T16:22:36.014Z,87.80
2023-05-14T16:25:04.710Z,88.00
2023-05-14T16:27:32.073Z,88.50
2023-05-14T16:29:59.124Z,88.70
2023-05-14T16:32:26.204Z,89.00
2023-05-14T16:34:53.303Z,89.70
2023-05-14T16:37:20.592Z,89.50
2023-05-14T16:39:48.454Z,89.30
2023-05-14T16:42:15.414Z,88.90
2023-05-14T16:44:42.426Z,88.60
2023-05-14T16:47:09.408Z,87.30
2023-05-14T16:49:36.453Z,86.70
2023-05-14T16:52:03.821Z,88.80
2023-05-14T16:54:30.870Z,88.20
2023-05-14T16:56:57.855Z,90.10
2023-05-14T16:59:25.239Z,90.10
2023-05-14T17:01:52.344Z,89.50
2023-05-14T17:04:19.466Z,90.10
2023-05-14T17:06:46.671Z,88.00
2023-05-14T17:09:13.672Z,89.60
2023-05-14T17:11:40.914Z,88.00
2023-05-14T17:14:08.090Z,90.30
2023-05-14T17:16:35.101Z,89.60
2023-05-14T17:19:02.247Z,90.80
2023-05-14T17:21:29.278Z,91.30
2023-05-14T17:23:56.393Z,90.30
2023-05-14T17:26:23.499Z,90.90
2023-05-14T17:28:50.534Z,88.00
2023-05-14T17:31:17.643Z,87.70
2023-05-14T17:33:44.599Z,88.10
2023-05-14T17:36:11.608Z,87.80
2023-05-14T17:38:39.118Z,86.90
2023-05-14T17:41:06.307Z,88.60
2023-05-14T17:43:33.459Z,87.00
2023-05-14T17:46:00.437Z,90.10
2023-05-14T17:48:27.479Z,89.00
2023-05-14T17:50:54.495Z,90.60
2023-05-14T17:53:21.773Z,91.00
2023-05-14T17:55:50.085Z,88.80
2023-05-14T17:58:17.306Z,90.50
2023-05-14T18:00:44.439Z,90.20
2023-05-14T18:03:11.871Z,91.00
2023-05-14T18:05:39.071Z,91.30
2023-05-14T18:08:06.137Z,91.20
2023-05-14T18:10:33.131Z,91.20
2023-05-14T18:13:00.273Z,91.40
2023-05-14T18:15:27.482Z,90.50
2023-05-14T18:17:54.768Z,90.80
2023-05-14T18:20:21.907Z,90.30
2023-05-14T18:22:50.561Z,91.10
2023-05-14T18:25:17.931Z,91.10
2023-05-14T18:27:45.627Z,92.10
2023-05-14T18:30:14.990Z,92.60
2023-05-14T18:32:44.548Z,91.30
2023-05-14T18:35:13.611Z,92.30
2023-05-14T18:37:40.984Z,92.80
2023-05-14T18:40:09.155Z,91.60
2023-05-14T18:42:36.236Z,92.20
2023-05-14T18:45:04.294Z,93.20
2023-05-14T18:47:33.536Z,93.30
2023-05-14T18:50:01.898Z,94.10
2023-05-14T18:52:29.854Z,93.90
2023-05-14T18:54:56.885Z,93.50
2023-05-14T18:57:34.907Z,93.80
2023-05-14T19:00:02.112Z,93.40
2023-05-14T19:02:29.767Z,93.70
2023-05-14T19:04:57.096Z,93.60
2023-05-14T19:07:24.361Z,93.90
2023-05-14T19:09:51.867Z,94.50
2023-05-14T19:12:18.818Z,94.20
2023-05-14T19:14:46.014Z,95.00
2023-05-14T19:17:13.185Z,94.90
2023-05-14T19:19:40.141Z,95.90
2023-05-14T19:22:07.254Z,95.40
2023-05-14T19:24:34.262Z,95.20
2023-05-14T19:27:01.404Z,95.50
2023-05-14T19:29:28.524Z,95.70
2023-05-14T19:31:55.615Z,96.20
2023-05-14T19:34:22.642Z,95.80
2023-05-14T19:36:50.100Z,95.60
2023-05-14T19:39:17.415Z,95.50
2023-05-14T19:41:44.386Z,95.50
2023-05-14T19:44:11.346Z,95.90
2023-05-14T19:46:38.493Z,96.10
2023-05-14T19:49:05.974Z,96.70
2023-05-14T19:51:32.916Z,97.30
2023-05-14T19:54:00.088Z,97.30
2023-05-14T19:56:27.975Z,97.60
2023-05-14T19:58:55.130Z,98.10
2023-05-14T20:01:22.402Z,98.90
2023-05-14T20:03:49.603Z,98.90
2023-05-14T20:06:17.472Z,99.20
2023-05-14T20:08:47.694Z,99.10
2023-05-14T20:11:15.632Z,99.40
2023-05-14T20:13:42.663Z,99.30
2023-05-14T20:16:09.660Z,99.30
2023-05-14T20:18:36.749Z,99.50
2023-05-14T20:21:04.182Z,99.90
2023-05-14T20:23:32.332Z,99.80
2023-05-14T20:26:01.741Z,99.90
2023-05-14T20:28:29.246Z,99.90
2023-05-14T20:31:08.038Z,99.90
2023-05-14T20:33:35.298Z,99.90
2023-05-14T20:36:04.401Z,99.90
2023-05-14T20:38:32.769Z,99.90
2023-05-14T20:40:59.856Z,99.90
2023-05-14T20:43:27.740Z,99.90
2023-05-14T20:45:57.136Z,99.90
2023-05-14T20:48:24.216Z,99.90
2023-05-14T20:50:51.171Z,99.90
2023-05-14T20:53:18.171Z,99.90
2023-05-14T20:55:45.235Z,99.90
2023-05-14T20:58:12.186Z,99.90
2023-05-14T21:00:39.261Z,99.90
2023-05-14T21:03:06.401Z,99.90
2023-05-14T21:05:33.659Z,99.90
2023-05-14T21:08:00.617Z,99.90
2023-05-14T21:10:27.673Z,99.90
2023-05-14T21:12:54.755Z,99.90
2023-05-14T21:15:21.737Z,99.90
2023-05-14T21:17:48.771Z,99.90
2023-05-14T21:20:15.831Z,99.90
2023-05-14T21:22:42.778Z,99.90
2023-05-14T21:25:10.194Z,99.90
2023-05-14T21:27:37.380Z,99.90
2023-05-14T21:30:05.058Z,99.90
2023-05-14T21:32:32.718Z,99.90
2023-05-14T21:34:59.690Z,99.90
2023-05-14T21:37:26.749Z,99.90
2023-05-14T21:39:53.682Z,99.90
2023-05-14T21:42:21.117Z,99.90
2023-05-14T21:44:48.093Z,99.90
2023-05-14T21:47:16.279Z,99.90
2023-05-14T21:49:43.541Z,99.90
2023-05-14T21:52:10.736Z,99.90
2023-05-14T21:54:37.656Z,99.90
2023-05-14T21:57:04.793Z,99.90
2023-05-14T21:59:31.736Z,99.90
2023-05-14T22:04:28.544Z,99.90
2023-05-14T22:06:55.958Z,99.90
2023-05-14T22:09:22.885Z,99.90
2023-05-14T22:11:49.865Z,99.90
2023-05-14T22:14:17.210Z,99.90
2023-05-14T22:16:44.402Z,99.90
2023-05-14T22:19:11.813Z,99.90
2023-05-14T22:21:38.995Z,99.90
2023-05-14T22:24:06.350Z,99.90
2023-05-14T22:26:33.411Z,99.90
2023-05-14T22:29:00.446Z,99.90
2023-05-14T22:31:27.459Z,99.90
2023-05-14T22:33:54.724Z,99.90
2023-05-14T22:36:21.670Z,99.90
2023-05-14T22:38:48.621Z,99.90
2023-05-14T22:41:17.458Z,99.90
2023-05-14T22:43:44.481Z,99.90
2023-05-14T22:46:11.508Z,99.90
2023-05-14T22:48:38.616Z,99.90
2023-05-14T22:51:05.661Z,99.90
2023-05-14T22:53:32.664Z,99.90
2023-05-14T22:55:59.684Z,99.90
2023-05-14T22:58:26.586Z,99.90
2023-05-14T23:00:53.582Z,99.90
2023-05-14T23:03:20.649Z,99.90
2023-05-14T23:05:47.615Z,99.90
2023-05-14T23:08:14.608Z,99.90
2023-05-14T23:10:41.782Z,99.90
2023-05-14T23:13:08.700Z,99.90
2023-05-14T23:15:35.780Z,99.90
2023-05-14T23:18:02.888Z,99.90
2023-05-14T23:20:29.991Z,99.90
2023-05-14T23:22:56.905Z,99.90
2023-05-14T23:25:24.335Z,99.90
2023-05-14T23:27:51.660Z,99.90
2023-05-14T23:30:18.662Z,99.90
2023-05-14T23:32:45.658Z,99.90
2023-05-14T23:35:12.666Z,99.90
2023-05-14T23:37:47.077Z,99.90
2023-05-14T23:40:15.657Z,99.90
2023-05-14T23:42:43.442Z,99.90
2023-05-14T23:45:12.169Z,99.90
2023-05-14T23:47:40.479Z,99.90
2023-05-14T23:50:08.034Z,99.90
2023-05-14T23:52:35.034Z,99.90
2023-05-14T23:55:04.182Z,99.90
2023-05-14T23:57:31.235Z,99.90
2023-05-14T23:59:58.385Z,99.90
